Time;durP1;ratioP1;P1;durP2;ratioP2;P2;SDS_P1;SDS_P2;PMS_P1;PMS_P2;Temp;Humidity;BMP_temperature;BMP_pressure;BME280_temperature;BME280_humidity;BME280_pressure;Samples;Min_cycle;Max_cycle;Signal;HPM_P1;HPM_P2
2023/07/16 00:00:41;;;;;;;8.95;4.30;;;26.60;61.80;;;;;;6164065;27;80612;-67
2023/07/16 00:03:42;;;;;;;6.13;4.45;;;26.70;61.70;;;;;;6168077;27;80195;-68
2023/07/16 00:06:42;;;;;;;6.53;4.25;;;26.70;61.50;;;;;;6163381;27;80497;-67
2023/07/16 00:09:43;;;;;;;4.97;4.22;;;26.80;61.70;;;;;;6172328;27;81373;-65
2023/07/16 00:12:43;;;;;;;4.88;3.88;;;26.80;61.60;;;;;;6156484;27;80490;-65
2023/07/16 00:15:44;;;;;;;6.10;4.43;;;26.90;61.60;;;;;;6157423;27;80147;-65
2023/07/16 00:18:44;;;;;;;6.68;5.05;;;26.90;62.30;;;;;;6161367;27;80748;-58
2023/07/16 00:21:45;;;;;;;8.07;5.10;;;26.90;62.10;;;;;;6147916;27;80795;-59
2023/07/16 00:24:45;;;;;;;8.23;5.40;;;26.90;62.70;;;;;;6161620;27;80539;-58
2023/07/16 00:27:46;;;;;;;8.85;5.85;;;26.90;62.80;;;;;;6158039;27;80613;-57
2023/07/16 00:30:46;;;;;;;9.25;6.68;;;26.90;63.20;;;;;;6161755;27;85721;-58
2023/07/16 00:33:47;;;;;;;11.82;7.22;;;26.90;63.60;;;;;;6165001;27;80458;-56
2023/07/16 00:36:47;;;;;;;9.40;6.47;;;26.90;64.10;;;;;;6155573;27;80874;-58
2023/07/16 00:39:48;;;;;;;14.13;7.25;;;26.90;64.40;;;;;;6179510;27;80465;-58
2023/07/16 00:42:48;;;;;;;9.45;7.30;;;26.90;64.70;;;;;;6162224;27;80645;-58
2023/07/16 00:45:49;;;;;;;10.20;6.80;;;26.90;64.90;;;;;;6165062;27;80805;-58
2023/07/16 00:48:49;;;;;;;9.93;6.85;;;26.80;65.10;;;;;;6160149;27;81879;-59
2023/07/16 00:51:50;;;;;;;11.95;7.53;;;26.90;65.40;;;;;;6154008;27;81208;-57
2023/07/16 00:54:50;;;;;;;16.85;7.22;;;26.90;65.90;;;;;;6175246;27;83498;-70
2023/07/16 00:57:51;;;;;;;9.57;6.88;;;26.80;65.80;;;;;;6175190;27;83320;-69
2023/07/16 01:00:52;;;;;;;10.02;6.97;;;26.80;66.00;;;;;;6173283;27;81227;-72
2023/07/16 01:03:52;;;;;;;11.52;7.10;;;26.80;66.10;;;;;;6166363;27;80648;-68
2023/07/16 01:06:53;;;;;;;12.75;8.18;;;26.80;66.30;;;;;;6163166;27;86732;-68
2023/07/16 01:09:54;;;;;;;9.80;7.20;;;26.80;66.40;;;;;;6162116;27;85552;-70
2023/07/16 01:12:55;;;;;;;10.23;7.45;;;26.80;66.50;;;;;;6176444;27;81364;-58
2023/07/16 01:15:55;;;;;;;9.90;6.93;;;26.80;66.60;;;;;;6162586;27;80538;-58
2023/07/16 01:18:56;;;;;;;12.50;7.15;;;26.80;66.40;;;;;;6137481;27;83651;-55
2023/07/16 01:21:57;;;;;;;9.73;7.45;;;26.80;66.50;;;;;;6161510;27;80786;-57
2023/07/16 01:24:58;;;;;;;9.25;7.30;;;26.80;66.50;;;;;;6173880;27;81766;-59
2023/07/16 01:27:58;;;;;;;9.48;6.82;;;26.80;66.70;;;;;;6174958;27;81150;-57
2023/07/16 01:30:59;;;;;;;11.57;7.55;;;26.80;66.40;;;;;;6174025;27;82820;-56
2023/07/16 01:34:00;;;;;;;11.32;6.90;;;26.80;66.50;;;;;;6188729;27;81337;-55
2023/07/16 01:37:00;;;;;;;10.82;7.03;;;26.80;66.70;;;;;;6174362;27;80597;-57
2023/07/16 01:40:01;;;;;;;12.23;7.43;;;26.80;66.70;;;;;;6157157;27;82274;-60
2023/07/16 01:43:01;;;;;;;13.63;7.28;;;26.80;66.90;;;;;;6185865;27;83311;-57
2023/07/16 01:46:02;;;;;;;10.95;7.88;;;26.80;67.10;;;;;;6174561;27;81065;-57
2023/07/16 01:49:03;;;;;;;10.10;7.07;;;26.80;67.00;;;;;;6180184;27;80564;-57
2023/07/16 01:52:03;;;;;;;10.05;7.13;;;26.80;67.30;;;;;;6184719;27;80794;-57
2023/07/16 01:55:03;;;;;;;12.15;7.78;;;26.80;67.20;;;;;;6175215;27;80207;-56
2023/07/16 01:58:05;;;;;;;10.77;7.38;;;26.80;67.90;;;;;;6171455;27;81932;-55
2023/07/16 02:01:06;;;;;;;12.20;7.40;;;26.80;67.30;;;;;;6173459;27;82413;-58
2023/07/16 02:04:06;;;;;;;11.10;7.50;;;26.80;67.30;;;;;;6184230;27;81777;-59
2023/07/16 02:07:08;;;;;;;14.90;6.97;;;26.70;67.30;;;;;;6161225;27;81674;-58
2023/07/16 02:10:09;;;;;;;12.63;7.88;;;26.70;67.40;;;;;;6165798;27;82195;-57
2023/07/16 02:13:09;;;;;;;9.70;6.68;;;26.70;67.30;;;;;;6155844;27;80469;-59
2023/07/16 02:16:10;;;;;;;9.57;6.50;;;26.70;67.30;;;;;;6151028;27;81927;-58
2023/07/16 02:19:10;;;;;;;8.85;6.60;;;26.80;67.30;;;;;;6155871;27;83005;-57
2023/07/16 02:22:11;;;;;;;8.20;5.88;;;26.70;67.20;;;;;;6160207;27;80938;-58
2023/07/16 02:25:14;;;;;;;9.27;7.03;;;26.70;67.30;;;;;;6187455;27;80738;-55
2023/07/16 02:28:15;;;;;;;10.05;6.38;;;26.70;67.30;;;;;;6172716;27;82504;-58
2023/07/16 02:31:15;;;;;;;10.90;7.32;;;26.70;67.10;;;;;;6180641;27;81355;-55
2023/07/16 02:34:16;;;;;;;9.55;6.78;;;26.70;67.10;;;;;;6173495;27;82181;-56
2023/07/16 02:37:16;;;;;;;10.00;6.95;;;26.70;67.30;;;;;;6184759;27;82063;-57
2023/07/16 02:40:17;;;;;;;10.70;6.50;;;26.70;67.00;;;;;;6172338;27;80792;-57
2023/07/16 02:43:17;;;;;;;11.32;6.05;;;26.70;67.00;;;;;;6217154;27;83574;-58
2023/07/16 02:46:19;;;;;;;10.07;6.90;;;26.70;66.90;;;;;;6175243;27;80511;-60
2023/07/16 02:49:20;;;;;;;10.32;6.68;;;26.70;66.80;;;;;;6173096;27;84028;-60
2023/07/16 02:52:21;;;;;;;11.43;6.70;;;26.70;67.00;;;;;;6172331;27;81280;-58
2023/07/16 02:55:21;;;;;;;9.63;6.53;;;26.70;67.00;;;;;;6171515;27;83489;-58
2023/07/16 02:58:22;;;;;;;8.18;5.90;;;26.70;66.90;;;;;;6168698;27;82989;-58
2023/07/16 03:01:22;;;;;;;10.52;6.53;;;26.60;66.80;;;;;;6170378;27;81825;-57
2023/07/16 03:04:23;;;;;;;10.93;7.15;;;26.60;67.00;;;;;;6171849;27;82439;-67
2023/07/16 03:07:23;;;;;;;9.25;6.45;;;26.70;67.00;;;;;;6160435;27;80861;-67
2023/07/16 03:10:26;;;;;;;10.15;6.18;;;26.60;66.90;;;;;;6173823;27;80654;-69
2023/07/16 03:13:27;;;;;;;9.32;6.72;;;26.60;67.00;;;;;;6171874;27;83276;-68
2023/07/16 03:16:27;;;;;;;11.57;6.85;;;26.60;67.00;;;;;;6173356;27;80849;-68
2023/07/16 03:19:28;;;;;;;10.57;6.90;;;26.60;67.00;;;;;;6169940;27;81711;-71
2023/07/16 03:22:28;;;;;;;8.75;5.78;;;26.60;67.00;;;;;;6162751;27;81106;-59
2023/07/16 03:25:29;;;;;;;11.32;7.20;;;26.60;67.10;;;;;;6164754;27;83536;-58
2023/07/16 03:28:30;;;;;;;8.80;6.65;;;26.60;67.00;;;;;;6222114;27;83265;-58
2023/07/16 03:31:31;;;;;;;9.15;6.57;;;26.60;67.20;;;;;;6153019;27;83408;-56
2023/07/16 03:34:32;;;;;;;11.80;6.55;;;26.60;67.10;;;;;;6153945;27;82543;-57
2023/07/16 03:37:32;;;;;;;8.30;6.07;;;26.60;67.10;;;;;;6147967;27;80461;-57
2023/07/16 03:40:33;;;;;;;8.48;6.35;;;26.60;67.10;;;;;;6151733;27;81593;-58
2023/07/16 03:43:33;;;;;;;12.27;6.35;;;26.60;67.00;;;;;;6172721;27;81350;-55
2023/07/16 03:46:44;;;;;;;8.98;6.63;;;26.60;67.00;;;;;;6167200;27;80541;-58
2023/07/16 03:49:46;;;;;;;8.25;5.93;;;26.60;67.00;;;;;;6169942;27;83203;-57
2023/07/16 03:52:46;;;;;;;10.65;6.03;;;26.60;67.10;;;;;;6168551;27;81742;-58
2023/07/16 03:55:47;;;;;;;11.00;6.20;;;26.60;66.90;;;;;;6170161;27;82737;-59
2023/07/16 03:58:48;;;;;;;9.20;6.28;;;26.60;67.20;;;;;;6166551;27;82775;-69
2023/07/16 04:01:48;;;;;;;12.05;6.38;;;26.70;66.90;;;;;;6171245;27;80589;-65
2023/07/16 04:04:50;;;;;;;9.32;6.63;;;26.70;67.00;;;;;;6158776;27;80837;-70
2023/07/16 04:07:50;;;;;;;12.50;5.55;;;26.70;66.90;;;;;;6147154;27;82593;-71
2023/07/16 04:10:51;;;;;;;9.25;6.18;;;26.70;67.20;;;;;;6173721;27;80697;-72
2023/07/16 04:13:51;;;;;;;11.25;6.97;;;26.70;67.20;;;;;;6158744;27;80401;-64
2023/07/16 04:16:52;;;;;;;10.88;6.28;;;26.70;67.50;;;;;;6177543;27;80865;-68
2023/07/16 04:19:52;;;;;;;10.32;6.32;;;26.70;67.40;;;;;;6159112;27;80302;-69
2023/07/16 04:22:53;;;;;;;8.55;5.75;;;26.70;67.40;;;;;;6163062;27;79958;-71
2023/07/16 04:25:54;;;;;;;7.78;6.05;;;26.80;67.50;;;;;;6178766;27;82300;-69
2023/07/16 04:28:54;;;;;;;9.40;6.95;;;26.80;67.30;;;;;;6157821;27;82363;-67
2023/07/16 04:31:55;;;;;;;9.98;6.85;;;26.80;67.10;;;;;;6168960;27;80408;-66
2023/07/16 04:34:55;;;;;;;7.95;6.50;;;26.80;67.40;;;;;;6153241;27;82618;-66
2023/07/16 04:37:56;;;;;;;12.25;6.57;;;26.80;67.40;;;;;;6153719;27;80463;-67
2023/07/16 04:40:56;;;;;;;9.05;6.18;;;26.90;67.70;;;;;;6159257;27;80967;-67
2023/07/16 04:43:57;;;;;;;10.45;6.07;;;26.80;68.20;;;;;;6157710;27;81435;-65
2023/07/16 04:46:57;;;;;;;10.93;6.65;;;26.80;68.70;;;;;;6158988;27;84119;-63
2023/07/16 04:49:58;;;;;;;10.40;6.68;;;26.90;68.20;;;;;;6153439;27;82222;-66
2023/07/16 04:52:58;;;;;;;13.40;6.40;;;26.80;68.90;;;;;;6159612;27;80620;-58
2023/07/16 04:55:59;;;;;;;9.40;6.43;;;26.90;67.90;;;;;;6163150;27;82931;-59
2023/07/16 04:58:59;;;;;;;7.72;6.20;;;26.90;67.50;;;;;;6151560;27;81242;-57
2023/07/16 05:02:00;;;;;;;10.55;6.50;;;26.90;67.70;;;;;;6161851;27;85013;-58
2023/07/16 05:05:00;;;;;;;8.30;5.93;;;26.90;67.90;;;;;;6156712;27;80982;-58
2023/07/16 05:08:01;;;;;;;10.45;5.55;;;27.00;67.80;;;;;;6147503;27;80332;-59
2023/07/16 05:11:01;;;;;;;8.95;5.28;;;27.00;67.80;;;;;;6147798;27;80145;-59
2023/07/16 05:14:02;;;;;;;8.25;5.43;;;27.00;67.50;;;;;;6159266;27;80415;-62
2023/07/16 05:17:02;;;;;;;11.70;6.00;;;27.00;67.20;;;;;;6148621;27;80617;-62
2023/07/16 05:20:04;;;;;;;9.55;6.32;;;27.00;67.30;;;;;;6161728;27;82209;-63
2023/07/16 05:23:04;;;;;;;8.10;5.55;;;27.00;67.50;;;;;;6167088;27;80788;-63
2023/07/16 05:26:05;;;;;;;13.25;6.20;;;27.10;67.70;;;;;;6158426;27;80321;-63
2023/07/16 05:29:05;;;;;;;8.95;6.32;;;27.00;67.60;;;;;;6159245;27;81314;-63
2023/07/16 05:32:06;;;;;;;11.32;6.22;;;27.10;67.90;;;;;;6170431;27;80372;-58
2023/07/16 05:35:06;;;;;;;8.93;6.07;;;27.00;68.90;;;;;;6175706;27;83341;-57
2023/07/16 05:38:07;;;;;;;9.93;6.75;;;27.10;68.80;;;;;;6167934;27;83355;-58
2023/07/16 05:41:07;;;;;;;7.40;6.22;;;27.10;69.00;;;;;;6170963;27;85294;-55
2023/07/16 05:44:08;;;;;;;12.80;6.18;;;27.10;69.20;;;;;;6171744;27;80801;-55
2023/07/16 05:47:09;;;;;;;8.82;6.13;;;27.20;69.60;;;;;;6170759;27;80403;-58
2023/07/16 05:50:10;;;;;;;10.07;5.57;;;27.20;69.50;;;;;;6173035;27;79974;-57
2023/07/16 05:53:10;;;;;;;7.28;6.05;;;27.20;69.40;;;;;;6173491;27;81014;-56
2023/07/16 05:56:11;;;;;;;11.73;6.30;;;27.20;69.40;;;;;;6174355;27;80512;-54
2023/07/16 05:59:11;;;;;;;10.10;6.30;;;27.30;69.60;;;;;;6174431;27;80657;-56
2023/07/16 06:02:12;;;;;;;9.02;6.97;;;27.30;69.90;;;;;;6171007;27;80609;-58
2023/07/16 06:05:12;;;;;;;10.02;6.22;;;27.30;69.70;;;;;;6165005;27;80916;-57
2023/07/16 06:08:13;;;;;;;11.60;6.45;;;27.30;69.30;;;;;;6164735;27;80560;-57
2023/07/16 06:11:13;;;;;;;9.75;6.50;;;27.30;69.20;;;;;;6176806;27;80639;-56
2023/07/16 06:14:14;;;;;;;8.52;6.55;;;27.30;69.20;;;;;;6174459;27;80423;-59
2023/07/16 06:17:14;;;;;;;7.53;5.70;;;27.30;69.30;;;;;;6185373;27;80051;-57
2023/07/16 06:20:15;;;;;;;10.60;6.13;;;27.30;69.40;;;;;;6160011;27;80905;-60
2023/07/16 06:23:16;;;;;;;9.82;6.00;;;27.30;69.70;;;;;;6173547;27;81723;-59
2023/07/16 06:26:17;;;;;;;11.05;6.20;;;27.40;69.80;;;;;;6162591;27;80641;-67
2023/07/16 06:29:17;;;;;;;11.52;6.15;;;27.30;70.30;;;;;;6170282;27;80372;-71
2023/07/16 06:32:18;;;;;;;10.90;6.40;;;27.30;70.00;;;;;;6163948;27;81425;-63
2023/07/16 06:35:18;;;;;;;9.95;6.32;;;27.30;70.30;;;;;;6178309;27;80612;-65
2023/07/16 06:38:19;;;;;;;8.75;6.35;;;27.30;70.20;;;;;;6169080;27;80466;-67
2023/07/16 06:41:19;;;;;;;6.68;4.90;;;27.40;70.50;;;;;;6170689;27;82329;-69
2023/07/16 06:44:20;;;;;;;6.45;4.88;;;27.30;67.70;;;;;;6169607;27;80924;-60
2023/07/16 06:47:20;;;;;;;6.65;5.03;;;27.30;68.90;;;;;;6166819;27;82144;-61
2023/07/16 06:50:21;;;;;;;13.07;6.05;;;27.30;69.70;;;;;;6171497;27;80285;-61
2023/07/16 06:53:21;;;;;;;10.52;6.95;;;27.40;70.30;;;;;;6171081;27;80974;-60
2023/07/16 06:56:22;;;;;;;8.43;6.57;;;27.50;70.60;;;;;;6162200;27;80570;-60
2023/07/16 06:59:22;;;;;;;12.98;6.90;;;27.60;71.00;;;;;;6168752;27;80867;-60
2023/07/16 07:02:23;;;;;;;14.98;7.05;;;27.50;70.90;;;;;;6174650;27;81877;-68
2023/07/16 07:05:23;;;;;;;12.57;6.30;;;27.60;70.90;;;;;;6162966;27;82119;-69
2023/07/16 07:08:24;;;;;;;17.27;7.18;;;27.60;70.90;;;;;;6163800;27;80176;-67
2023/07/16 07:11:25;;;;;;;7.53;5.95;;;27.60;70.30;;;;;;6171324;27;80390;-65
2023/07/16 07:14:25;;;;;;;11.68;5.63;;;27.60;68.50;;;;;;6162224;27;80748;-68
2023/07/16 07:17:25;;;;;;;9.32;6.20;;;27.60;67.80;;;;;;6168000;27;81019;-69
2023/07/16 07:20:26;;;;;;;10.95;5.00;;;27.60;67.70;;;;;;6155564;27;80506;-69
2023/07/16 07:23:26;;;;;;;6.47;4.85;;;27.60;64.80;;;;;;6163189;27;82382;-62
2023/07/16 07:26:27;;;;;;;7.28;5.07;;;27.60;65.30;;;;;;6164449;27;81115;-61
2023/07/16 07:29:27;;;;;;;7.85;4.90;;;27.60;65.10;;;;;;6168404;27;81347;-66
2023/07/16 07:32:28;;;;;;;18.23;5.38;;;27.70;64.90;;;;;;6171584;27;80227;-69
2023/07/16 07:35:28;;;;;;;24.05;5.43;;;27.70;66.00;;;;;;6161853;27;80959;-63
2023/07/16 07:38:29;;;;;;;8.02;4.55;;;27.70;65.80;;;;;;6170868;27;80366;-63
2023/07/16 07:41:29;;;;;;;11.30;5.28;;;27.70;66.30;;;;;;6168260;27;81108;-66
2023/07/16 07:44:30;;;;;;;8.38;5.13;;;27.70;66.60;;;;;;6163127;27;80560;-60
2023/07/16 07:47:30;;;;;;;8.63;5.30;;;27.70;66.50;;;;;;6162800;27;82154;-62
2023/07/16 07:50:31;;;;;;;9.98;5.13;;;27.70;66.30;;;;;;6173741;27;80082;-62
2023/07/16 07:53:31;;;;;;;6.45;5.03;;;27.70;66.10;;;;;;6174908;27;81265;-62
2023/07/16 07:56:32;;;;;;;7.55;5.68;;;27.70;66.10;;;;;;6174458;27;81115;-63
2023/07/16 07:59:33;;;;;;;6.88;5.68;;;27.70;66.10;;;;;;6164643;27;80406;-57
2023/07/16 08:02:33;;;;;;;6.57;5.10;;;27.70;66.10;;;;;;6170816;27;81680;-57
2023/07/16 08:05:34;;;;;;;12.88;5.30;;;27.70;65.70;;;;;;6162754;27;80884;-60
2023/07/16 08:08:34;;;;;;;6.13;5.05;;;27.60;66.50;;;;;;6167605;27;82717;-58
2023/07/16 08:11:35;;;;;;;7.47;4.70;;;27.20;63.10;;;;;;6172750;27;80887;-56
2023/07/16 08:14:35;;;;;;;7.60;4.70;;;27.00;60.20;;;;;;6171927;27;80400;-57
2023/07/16 08:17:36;;;;;;;6.57;5.00;;;26.70;58.60;;;;;;6171082;27;80426;-59
2023/07/16 08:20:36;;;;;;;8.50;5.00;;;26.60;57.50;;;;;;6162804;27;80740;-57
2023/07/16 08:23:37;;;;;;;10.30;4.63;;;26.50;57.20;;;;;;6163002;27;80295;-57
2023/07/16 08:26:37;;;;;;;7.78;4.85;;;26.30;57.50;;;;;;6164527;27;81034;-60
2023/07/16 08:29:38;;;;;;;9.07;4.70;;;26.20;56.50;;;;;;6172236;27;80114;-58
2023/07/16 08:32:38;;;;;;;5.97;5.05;;;26.10;56.20;;;;;;6168029;27;85296;-62
2023/07/16 08:35:39;;;;;;;8.10;4.85;;;26.00;56.10;;;;;;6173650;27;80974;-56
2023/07/16 08:38:39;;;;;;;27.35;5.50;;;26.10;60.70;;;;;;6172551;27;82944;-61
2023/07/16 08:41:40;;;;;;;12.13;5.70;;;26.30;61.80;;;;;;6171373;27;83336;-59
2023/07/16 08:44:40;;;;;;;6.55;5.32;;;26.50;62.60;;;;;;6168873;27;81188;-58
2023/07/16 08:47:41;;;;;;;8.10;5.45;;;26.60;63.00;;;;;;6172562;27;80599;-56
2023/07/16 08:50:41;;;;;;;7.65;5.13;;;26.80;63.40;;;;;;6172378;27;81308;-58
2023/07/16 08:53:42;;;;;;;6.10;5.50;;;26.90;63.30;;;;;;6173132;27;83369;-60
2023/07/16 08:56:42;;;;;;;6.47;4.90;;;27.00;62.90;;;;;;6185449;27;80602;-59
2023/07/16 08:59:43;;;;;;;6.82;5.00;;;27.10;63.60;;;;;;6187981;27;81750;-59
2023/07/16 09:02:43;;;;;;;5.70;5.10;;;27.10;64.00;;;;;;6176716;27;80268;-60
2023/07/16 09:05:44;;;;;;;5.80;4.85;;;27.20;63.10;;;;;;6163835;27;80470;-59
2023/07/16 09:08:44;;;;;;;7.00;5.03;;;27.30;63.30;;;;;;6156358;27;81091;-59
2023/07/16 09:11:45;;;;;;;6.85;4.78;;;27.10;60.80;;;;;;6175363;27;83240;-59
2023/07/16 09:14:46;;;;;;;5.95;4.75;;;26.90;58.70;;;;;;6178075;27;81464;-60
2023/07/16 09:17:47;;;;;;;12.88;5.72;;;26.80;57.70;;;;;;6175387;27;80604;-59
2023/07/16 09:20:47;;;;;;;7.47;5.00;;;26.60;56.90;;;;;;6163052;27;80873;-60
2023/07/16 09:23:48;;;;;;;8.30;5.60;;;26.50;56.70;;;;;;6173506;27;87136;-60
2023/07/16 09:26:49;;;;;;;7.05;5.50;;;26.40;60.30;;;;;;6174319;27;80909;-62
2023/07/16 09:29:49;;;;;;;12.00;10.90;;;26.60;60.60;;;;;;6168817;27;80235;-57
2023/07/16 09:32:50;;;;;;;10.25;9.18;;;26.80;61.20;;;;;;6177571;27;83278;-59
2023/07/16 09:35:50;;;;;;;10.07;9.05;;;26.90;61.20;;;;;;6174456;27;81739;-60
2023/07/16 09:38:51;;;;;;;12.57;7.85;;;27.00;61.90;;;;;;6176561;27;80563;-60
2023/07/16 09:41:51;;;;;;;9.15;7.68;;;27.10;61.30;;;;;;6170181;27;80769;-58
2023/07/16 09:44:52;;;;;;;13.98;7.00;;;27.10;61.40;;;;;;6174395;27;80462;-61
2023/07/16 09:47:52;;;;;;;8.73;5.93;;;26.90;58.60;;;;;;6167091;27;81166;-61
2023/07/16 09:50:53;;;;;;;6.05;5.45;;;26.90;62.30;;;;;;6168610;27;81899;-58
2023/07/16 09:53:53;;;;;;;7.95;5.40;;;27.00;62.10;;;;;;6167791;27;81453;-59
2023/07/16 09:56:54;;;;;;;9.32;6.20;;;27.10;63.30;;;;;;6171543;27;80777;-60
2023/07/16 09:59:54;;;;;;;8.77;5.45;;;27.20;63.50;;;;;;6182696;27;80137;-62
2023/07/16 10:02:55;;;;;;;9.40;6.32;;;27.40;64.20;;;;;;6183830;27;80519;-62
2023/07/16 10:05:55;;;;;;;6.35;5.75;;;27.60;65.10;;;;;;6160101;27;80595;-58
2023/07/16 10:08:57;;;;;;;6.38;5.57;;;27.60;65.40;;;;;;6174525;27;80742;-58
2023/07/16 10:11:57;;;;;;;6.20;5.47;;;27.60;66.40;;;;;;6182560;27;80575;-60
2023/07/16 10:14:58;;;;;;;7.70;5.13;;;27.70;66.10;;;;;;6178826;27;81650;-59
2023/07/16 10:17:59;;;;;;;9.50;5.93;;;27.80;65.60;;;;;;6179906;27;80898;-59
2023/07/16 10:20:59;;;;;;;7.50;5.80;;;27.90;65.80;;;;;;6162459;27;81320;-59
2023/07/16 10:24:00;;;;;;;7.38;5.63;;;27.90;67.40;;;;;;6177228;27;81098;-62
2023/07/16 10:27:00;;;;;;;6.72;5.43;;;28.00;65.70;;;;;;6154169;27;81092;-62
2023/07/16 10:30:02;;;;;;;8.15;5.07;;;28.00;66.10;;;;;;6173383;27;81183;-60
2023/07/16 10:33:06;;;;;;;6.35;5.28;;;28.10;64.20;;;;;;6175516;27;81531;-60
2023/07/16 10:36:06;;;;;;;7.28;5.15;;;28.10;63.90;;;;;;6169638;27;80479;-61
2023/07/16 10:39:07;;;;;;;6.43;5.30;;;28.30;63.90;;;;;;6170137;27;85746;-61
2023/07/16 10:42:07;;;;;;;5.35;4.85;;;28.30;63.90;;;;;;6172278;27;81881;-61
2023/07/16 10:45:08;;;;;;;10.30;5.25;;;28.30;64.30;;;;;;6168521;27;82965;-61
2023/07/16 10:48:09;;;;;;;9.40;4.88;;;28.30;64.30;;;;;;6163860;27;81022;-65
2023/07/16 10:51:10;;;;;;;6.80;5.28;;;28.30;64.70;;;;;;6174006;27;80860;-61
2023/07/16 10:54:10;;;;;;;7.53;5.22;;;28.40;63.60;;;;;;6184712;27;80997;-62
2023/07/16 10:57:11;;;;;;;6.10;4.95;;;28.40;63.00;;;;;;6169470;27;81135;-63
2023/07/16 11:00:12;;;;;;;8.23;5.43;;;28.40;63.60;;;;;;6165062;27;80691;-64
2023/07/16 11:03:12;;;;;;;5.78;4.93;;;28.40;63.50;;;;;;6167814;27;80873;-64
2023/07/16 11:06:13;;;;;;;12.60;5.50;;;28.50;64.30;;;;;;6159748;27;80955;-63
2023/07/16 11:09:14;;;;;;;7.90;5.38;;;28.50;62.90;;;;;;6167508;27;85163;-61
2023/07/16 11:12:14;;;;;;;6.22;4.55;;;28.50;62.90;;;;;;6170161;27;82368;-59
2023/07/16 11:15:15;;;;;;;8.13;4.97;;;28.50;63.50;;;;;;6181624;27;80752;-61
2023/07/16 11:18:15;;;;;;;5.88;4.70;;;28.50;63.40;;;;;;6171130;27;81973;-62
2023/07/16 11:21:16;;;;;;;9.30;4.80;;;28.50;63.20;;;;;;6159092;27;80624;-65
2023/07/16 11:24:17;;;;;;;8.00;4.47;;;28.60;63.00;;;;;;6174261;27;80720;-63
2023/07/16 11:27:17;;;;;;;6.25;4.70;;;28.60;64.40;;;;;;6174322;27;80670;-63
2023/07/16 11:30:18;;;;;;;5.63;4.32;;;28.60;62.80;;;;;;6193431;27;80157;-64
2023/07/16 11:33:18;;;;;;;7.63;4.80;;;28.60;63.70;;;;;;6173422;27;80801;-62
2023/07/16 11:36:19;;;;;;;7.07;4.40;;;28.60;61.80;;;;;;6173193;27;81149;-61
2023/07/16 11:39:20;;;;;;;8.45;4.32;;;28.60;63.40;;;;;;6171787;27;81672;-59
2023/07/16 11:42:21;;;;;;;5.28;3.83;;;28.60;62.60;;;;;;6173171;27;80810;-58
2023/07/16 11:45:22;;;;;;;8.35;4.63;;;28.60;63.10;;;;;;6172830;27;81223;-59
2023/07/16 11:48:23;;;;;;;5.93;4.40;;;28.60;62.80;;;;;;6173163;27;80773;-57
2023/07/16 11:51:24;;;;;;;8.63;4.68;;;28.60;62.70;;;;;;6174282;27;80899;-57
2023/07/16 11:54:24;;;;;;;7.30;4.47;;;28.60;63.60;;;;;;6167914;27;81005;-60
2023/07/16 11:57:25;;;;;;;5.78;4.55;;;28.70;62.80;;;;;;6169067;27;80770;-55
2023/07/16 12:00:25;;;;;;;7.45;4.85;;;28.70;59.00;;;;;;6169102;27;83032;-60
2023/07/16 12:03:26;;;;;;;5.97;4.30;;;28.80;61.10;;;;;;6167825;27;85968;-63
2023/07/16 12:06:26;;;;;;;14.05;5.15;;;28.80;61.40;;;;;;6156156;27;80856;-61
2023/07/16 12:09:27;;;;;;;8.65;4.35;;;28.80;60.60;;;;;;6159500;27;82339;-64
2023/07/16 12:12:27;;;;;;;8.60;4.30;;;28.80;62.80;;;;;;6154138;27;85071;-61
2023/07/16 12:15:28;;;;;;;5.75;3.97;;;28.80;62.80;;;;;;6169861;27;87959;-58
2023/07/16 12:18:30;;;;;;;5.65;3.95;;;28.80;61.40;;;;;;6168806;27;80583;-63
2023/07/16 12:21:31;;;;;;;4.90;4.30;;;28.80;60.90;;;;;;6159008;27;81252;-63
2023/07/16 12:24:31;;;;;;;7.10;4.38;;;28.80;62.30;;;;;;6166530;27;80527;-68
2023/07/16 12:27:32;;;;;;;4.90;4.22;;;28.80;62.50;;;;;;6169653;27;80609;-62
2023/07/16 12:30:32;;;;;;;7.07;4.35;;;28.90;63.00;;;;;;6171074;27;80514;-65
2023/07/16 12:33:33;;;;;;;6.60;4.70;;;28.90;61.90;;;;;;6171838;27;80618;-58
2023/07/16 12:36:33;;;;;;;6.88;4.57;;;28.90;62.80;;;;;;6172989;27;80261;-59
2023/07/16 12:39:34;;;;;;;5.22;4.63;;;28.90;63.20;;;;;;6172298;27;81747;-59
2023/07/16 12:42:34;;;;;;;5.38;4.45;;;28.90;63.20;;;;;;6172015;27;80411;-59
2023/07/16 12:45:35;;;;;;;5.60;4.93;;;28.90;64.20;;;;;;6170668;27;81120;-60
2023/07/16 12:48:35;;;;;;;9.88;5.07;;;28.90;63.30;;;;;;6154700;27;81045;-59
2023/07/16 12:51:36;;;;;;;6.15;4.70;;;28.90;62.30;;;;;;6174605;27;80685;-59
2023/07/16 12:54:36;;;;;;;6.13;4.75;;;28.90;62.90;;;;;;6172279;27;80110;-59
2023/07/16 12:57:37;;;;;;;7.93;5.97;;;29.00;62.30;;;;;;6174836;27;80360;-59
2023/07/16 13:00:37;;;;;;;7.38;5.72;;;29.00;62.60;;;;;;6174489;27;80823;-60
2023/07/16 13:03:38;;;;;;;7.35;5.78;;;29.00;63.50;;;;;;6171920;27;80378;-58
2023/07/16 13:06:38;;;;;;;6.07;5.35;;;29.00;61.80;;;;;;6173344;27;82271;-62
2023/07/16 13:09:39;;;;;;;7.07;5.80;;;29.00;61.80;;;;;;6175400;27;81159;-58
2023/07/16 13:12:39;;;;;;;6.03;5.43;;;28.90;62.40;;;;;;6176333;27;82269;-61
2023/07/16 13:15:40;;;;;;;6.47;5.68;;;29.00;61.40;;;;;;6171143;27;84021;-61
2023/07/16 13:18:40;;;;;;;6.82;6.00;;;28.90;61.40;;;;;;6174832;27;81210;-58
2023/07/16 13:21:41;;;;;;;9.45;6.75;;;28.80;62.20;;;;;;6160492;27;81366;-56
2023/07/16 13:24:42;;;;;;;9.95;6.63;;;28.60;58.90;;;;;;6170762;27;84813;-61
2023/07/16 13:27:42;;;;;;;7.47;6.22;;;28.50;58.50;;;;;;6171288;27;80978;-59
2023/07/16 13:30:43;;;;;;;11.82;6.30;;;28.50;59.00;;;;;;6160041;27;81771;-60
2023/07/16 13:33:43;;;;;;;8.25;6.20;;;28.70;60.00;;;;;;6173371;27;81015;-59
2023/07/16 13:36:44;;;;;;;8.85;6.97;;;28.70;60.40;;;;;;6168531;27;84992;-61
2023/07/16 13:39:44;;;;;;;13.75;6.40;;;28.70;61.60;;;;;;6173779;27;80866;-60
2023/07/16 13:42:45;;;;;;;12.07;6.43;;;28.70;61.90;;;;;;6171578;27;83987;-62
2023/07/16 13:45:45;;;;;;;8.48;6.13;;;28.80;62.20;;;;;;6168103;27;83096;-61
2023/07/16 13:48:46;;;;;;;7.88;6.18;;;28.80;63.00;;;;;;6170061;27;80366;-59
2023/07/16 13:51:47;;;;;;;9.15;5.97;;;28.80;62.50;;;;;;6174137;27;81072;-61
2023/07/16 13:54:47;;;;;;;7.50;6.68;;;28.80;62.00;;;;;;6163257;27;80798;-59
2023/07/16 13:57:48;;;;;;;17.23;7.00;;;28.80;61.50;;;;;;6179956;27;80495;-60
2023/07/16 14:00:48;;;;;;;10.18;6.15;;;28.90;61.40;;;;;;6166520;27;83585;-62
2023/07/16 14:03:49;;;;;;;8.23;6.75;;;28.90;61.80;;;;;;6174846;27;80439;-61
2023/07/16 14:06:49;;;;;;;8.40;6.72;;;28.90;61.40;;;;;;6155966;27;81047;-62
2023/07/16 14:09:50;;;;;;;9.30;7.63;;;28.90;61.20;;;;;;6167811;27;82185;-60
2023/07/16 14:12:50;;;;;;;7.90;7.10;;;28.90;61.30;;;;;;6174088;27;83766;-62
2023/07/16 14:15:51;;;;;;;8.70;7.90;;;29.00;61.10;;;;;;6169847;27;80698;-60
2023/07/16 14:18:52;;;;;;;9.25;7.68;;;28.90;61.40;;;;;;6167113;27;80379;-59
2023/07/16 14:21:52;;;;;;;10.55;7.45;;;28.90;60.80;;;;;;6161692;27;80522;-60
2023/07/16 14:24:53;;;;;;;10.48;7.32;;;28.90;60.90;;;;;;6174997;27;82223;-62
2023/07/16 14:27:53;;;;;;;11.43;7.63;;;29.00;60.50;;;;;;6174149;27;81008;-60
2023/07/16 14:30:54;;;;;;;9.20;7.53;;;28.90;60.80;;;;;;6174340;27;81905;-61
2023/07/16 14:33:54;;;;;;;29.50;7.68;;;28.90;60.60;;;;;;6157341;27;81239;-59
2023/07/16 14:36:55;;;;;;;7.88;7.07;;;28.90;63.00;;;;;;6168731;27;80542;-61
2023/07/16 14:39:55;;;;;;;7.57;6.88;;;28.70;58.60;;;;;;6171873;27;81595;-60
2023/07/16 14:42:56;;;;;;;7.32;6.57;;;28.40;55.70;;;;;;6175546;27;80417;-61
2023/07/16 14:45:56;;;;;;;22.25;8.13;;;28.00;53.90;;;;;;6174628;27;80672;-59
2023/07/16 14:48:58;;;;;;;22.33;9.32;;;27.80;53.80;;;;;;6168589;27;80652;-59
2023/07/16 14:51:58;;;;;;;25.60;8.75;;;27.60;53.80;;;;;;6175874;27;80848;-57
2023/07/16 14:55:00;;;;;;;14.10;8.18;;;27.40;53.90;;;;;;6173692;27;80811;-58
2023/07/16 14:58:00;;;;;;;12.82;7.97;;;27.50;57.00;;;;;;6176214;27;82990;-61
2023/07/16 15:01:03;;;;;;;12.00;7.75;;;27.60;56.80;;;;;;6175741;27;81107;-64
2023/07/16 15:04:04;;;;;;;27.80;15.50;;;27.70;57.40;;;;;;6164830;27;81141;-62
2023/07/16 15:07:05;;;;;;;39.05;27.77;;;27.80;58.30;;;;;;6159811;27;84034;-62
2023/07/16 15:10:05;;;;;;;41.20;33.33;;;27.90;59.00;;;;;;6171210;27;83523;-62
2023/07/16 15:13:06;;;;;;;57.35;46.97;;;28.00;59.90;;;;;;6172776;27;84264;-61
2023/07/16 15:16:07;;;;;;;74.85;57.38;;;28.00;60.80;;;;;;6172320;27;83718;-63
2023/07/16 15:19:11;;;;;;;79.05;57.50;;;28.00;61.50;;;;;;6166820;27;83724;-66
2023/07/16 15:22:11;;;;;;;64.35;45.38;;;28.10;60.40;;;;;;6159949;27;83035;-69
2023/07/16 15:25:12;;;;;;;50.80;36.97;;;28.20;61.30;;;;;;6184877;27;83377;-65
2023/07/16 15:28:13;;;;;;;41.22;31.25;;;28.20;62.00;;;;;;6170349;27;83121;-66
2023/07/16 15:31:13;;;;;;;32.03;24.38;;;28.30;60.90;;;;;;6170745;27;83241;-68
2023/07/16 15:34:14;;;;;;;28.70;20.50;;;28.30;61.90;;;;;;6167948;27;82839;-67